Terminal Aerodrome Forecast
Issued by NWS

Home | Current Version | Previous Version | Graphics & Text | Print | Product List | Glossary On
Versions: 1 2 3 4 5 6 7 8 9 10 11 12 13 14 15 16
000
FTUS43 KMPX 200800 AAA
TAFRWF
TAF AMD
KRWF 200818Z 2008/2106 00000KT 6SM BR SCT003
      TEMPO 2010/2013 2SM BR SCT002
     FM201300 14006KT P6SM SCT250
     FM210000 14008KT P6SM BKN070 PROB30 2100/2106 4SM TSRA
      OVC050CB=

USA.gov is the U.S. government's official web portal to all federal, state and local government web resources and services.